Time;durP1;ratioP1;P1;durP2;ratioP2;P2;SDS_P1;SDS_P2;PMS_P1;PMS_P2;Temp;Humidity;BMP_temperature;BMP_pressure;BME280_temperature;BME280_humidity;BME280_pressure;Samples;Min_cycle;Max_cycle;Signal;HPM_P1;HPM_P2
2021/10/12 00:01:11;;;;;;;5.82;1.50;;;10.10;99.90;;;;;;5014711;28;20042;-71
2021/10/12 00:03:36;;;;;;;6.40;1.63;;;10.10;99.90;;;;;;5032561;28;20045;-71
2021/10/12 00:06:02;;;;;;;5.78;1.70;;;10.10;99.90;;;;;;5025364;28;20052;-71
2021/10/12 00:08:28;;;;;;;6.85;1.80;;;10.10;99.90;;;;;;5030337;28;20047;-71
2021/10/12 00:10:53;;;;;;;6.35;1.40;;;10.10;99.90;;;;;;5032194;28;20037;-71
2021/10/12 00:13:19;;;;;;;6.95;1.50;;;10.10;99.90;;;;;;5035500;28;20079;-71
2021/10/12 00:15:45;;;;;;;6.60;1.60;;;10.10;99.90;;;;;;5038658;28;20042;-71
2021/10/12 00:18:11;;;;;;;5.55;1.55;;;10.00;99.90;;;;;;5032255;28;20124;-71
2021/10/12 00:20:36;;;;;;;10.07;1.88;;;10.00;99.90;;;;;;5031964;28;20116;-71
2021/10/12 00:23:05;;;;;;;4.40;1.40;;;10.00;99.90;;;;;;5032441;28;20041;-71
2021/10/12 00:25:30;;;;;;;7.55;1.80;;;10.00;99.90;;;;;;5018619;28;20049;-71
2021/10/12 00:27:56;;;;;;;5.70;1.60;;;10.00;99.90;;;;;;5022099;28;20427;-71
2021/10/12 00:30:22;;;;;;;7.40;1.70;;;10.10;99.90;;;;;;5024489;28;20422;-71
2021/10/12 00:32:47;;;;;;;9.90;1.95;;;10.10;99.90;;;;;;5032215;28;20046;-71
2021/10/12 00:35:13;;;;;;;7.88;1.70;;;10.10;99.90;;;;;;5015975;28;20052;-71
2021/10/12 00:37:39;;;;;;;9.45;1.63;;;10.20;99.90;;;;;;5035043;28;20102;-71
2021/10/12 00:40:05;;;;;;;6.80;2.10;;;10.20;99.90;;;;;;5044624;28;20079;-71
2021/10/12 00:42:30;;;;;;;8.75;2.00;;;10.30;99.90;;;;;;5026030;28;20040;-71
2021/10/12 00:44:57;;;;;;;5.75;1.48;;;10.30;99.90;;;;;;5053490;28;20049;-72
2021/10/12 00:47:22;;;;;;;5.15;1.38;;;10.30;99.90;;;;;;5035881;28;20036;-71
2021/10/12 00:49:48;;;;;;;8.15;1.83;;;10.30;99.90;;;;;;5039606;28;20040;-72
2021/10/12 00:52:14;;;;;;;6.90;1.73;;;10.40;99.90;;;;;;5035750;28;20032;-72
2021/10/12 00:54:40;;;;;;;8.18;1.70;;;10.40;99.90;;;;;;5009142;28;20748;-72
2021/10/12 00:57:07;;;;;;;8.18;1.85;;;10.50;99.90;;;;;;5031295;28;20038;-72
2021/10/12 00:59:34;;;;;;;9.23;1.58;;;10.50;99.90;;;;;;5031340;28;20080;-72
2021/10/12 01:02:01;;;;;;;7.10;1.60;;;10.40;99.90;;;;;;5035008;28;20717;-71
2021/10/12 01:04:27;;;;;;;8.80;1.95;;;10.40;99.90;;;;;;5041358;28;20382;-72
2021/10/12 01:06:53;;;;;;;9.65;1.77;;;10.40;99.90;;;;;;5052852;28;20067;-72
2021/10/12 01:09:18;;;;;;;11.45;1.67;;;10.40;99.90;;;;;;5015933;28;20045;-71
2021/10/12 01:11:45;;;;;;;8.55;1.80;;;10.30;99.90;;;;;;5000173;28;20080;-72
2021/10/12 01:14:10;;;;;;;8.32;1.90;;;10.30;99.90;;;;;;5042952;28;20040;-72
2021/10/12 01:16:36;;;;;;;9.05;2.05;;;10.30;99.90;;;;;;5038987;28;20109;-72
2021/10/12 01:19:04;;;;;;;8.52;2.03;;;10.40;99.90;;;;;;5009416;28;20483;-72
2021/10/12 01:21:37;;;;;;;15.43;2.00;;;10.40;99.90;;;;;;5034939;28;20041;-72
2021/10/12 01:24:04;;;;;;;7.35;1.88;;;10.40;99.90;;;;;;5034092;28;20398;-73
2021/10/12 01:26:29;;;;;;;7.45;1.88;;;10.40;99.90;;;;;;5028818;28;20049;-73
2021/10/12 01:28:55;;;;;;;7.10;2.25;;;10.40;99.90;;;;;;5028383;28;20047;-72
2021/10/12 01:31:25;;;;;;;8.90;1.98;;;10.40;99.90;;;;;;5038184;28;20041;-72
2021/10/12 01:33:51;;;;;;;10.30;2.03;;;10.50;99.90;;;;;;5025391;28;20757;-72
2021/10/12 01:36:17;;;;;;;9.02;1.60;;;10.50;99.90;;;;;;5011742;28;20049;-71
2021/10/12 01:38:43;;;;;;;10.32;2.28;;;10.50;99.90;;;;;;5021584;28;20449;-72
2021/10/12 01:41:09;;;;;;;9.23;2.10;;;10.50;99.90;;;;;;5005840;28;20049;-72
2021/10/12 01:43:35;;;;;;;8.68;2.03;;;10.50;99.90;;;;;;5048455;28;20382;-72
2021/10/12 01:46:02;;;;;;;8.40;1.73;;;10.50;99.90;;;;;;5045856;28;20406;-72
2021/10/12 01:48:28;;;;;;;7.00;1.42;;;10.50;99.90;;;;;;5038312;28;20118;-73
2021/10/12 01:50:54;;;;;;;8.45;1.70;;;10.50;99.90;;;;;;5029601;28;20510;-72
2021/10/12 01:53:19;;;;;;;8.23;1.75;;;10.50;99.90;;;;;;5034417;28;20071;-72
2021/10/12 01:55:45;;;;;;;8.75;1.63;;;10.40;99.90;;;;;;5030511;28;20459;-72
2021/10/12 01:58:10;;;;;;;12.20;1.75;;;10.50;99.90;;;;;;5029891;28;20063;-72
2021/10/12 02:00:36;;;;;;;6.47;1.67;;;10.50;99.90;;;;;;5033920;28;20049;-72
2021/10/12 02:03:01;;;;;;;6.70;1.50;;;10.50;99.90;;;;;;5031148;28;20048;-72
2021/10/12 02:05:27;;;;;;;7.63;1.73;;;10.50;99.90;;;;;;5026342;28;20040;-72
2021/10/12 02:07:52;;;;;;;8.63;1.67;;;10.50;99.90;;;;;;5017952;28;20119;-73
2021/10/12 02:10:18;;;;;;;7.50;1.33;;;10.40;99.90;;;;;;5031710;28;20158;-72
2021/10/12 02:12:44;;;;;;;8.23;1.42;;;10.50;99.90;;;;;;5030365;28;20057;-72
2021/10/12 02:15:09;;;;;;;7.03;1.52;;;10.50;99.90;;;;;;5026685;28;20036;-72
2021/10/12 02:17:35;;;;;;;6.72;1.50;;;10.50;99.90;;;;;;5023515;28;20467;-72
2021/10/12 02:20:01;;;;;;;7.03;1.10;;;10.50;99.90;;;;;;5042923;28;20033;-72
2021/10/12 02:22:27;;;;;;;8.30;1.10;;;10.60;99.90;;;;;;5031025;28;20033;-72
2021/10/12 02:24:52;;;;;;;8.85;1.33;;;10.70;99.90;;;;;;5051584;28;20485;-72
2021/10/12 02:27:18;;;;;;;5.93;1.30;;;10.70;99.90;;;;;;5023685;28;20726;-73
2021/10/12 02:29:43;;;;;;;7.00;1.80;;;10.70;99.90;;;;;;5028437;28;20098;-73
2021/10/12 02:32:09;;;;;;;5.38;1.33;;;10.70;99.90;;;;;;5033780;28;20106;-72
2021/10/12 02:34:35;;;;;;;5.45;1.13;;;10.70;99.90;;;;;;5038569;28;20044;-72
2021/10/12 02:37:00;;;;;;;5.82;1.20;;;10.60;99.90;;;;;;5024514;28;20055;-72
2021/10/12 02:39:27;;;;;;;6.85;1.58;;;10.60;99.90;;;;;;5014351;28;20037;-72
2021/10/12 02:41:53;;;;;;;11.43;1.45;;;10.60;99.90;;;;;;5026208;28;20060;-72
2021/10/12 02:44:18;;;;;;;5.50;1.25;;;10.60;99.90;;;;;;5029343;28;20045;-72
2021/10/12 02:46:44;;;;;;;6.95;1.48;;;10.60;99.90;;;;;;5023596;28;20478;-72
2021/10/12 02:49:10;;;;;;;6.65;1.30;;;10.50;99.90;;;;;;5025857;28;20444;-72
2021/10/12 02:51:35;;;;;;;7.40;1.52;;;10.50;99.90;;;;;;5024838;28;20044;-72
2021/10/12 02:54:01;;;;;;;4.55;1.02;;;10.50;99.90;;;;;;5038629;28;20044;-72
2021/10/12 02:56:26;;;;;;;6.78;1.83;;;10.50;99.90;;;;;;5032924;28;20035;-72
2021/10/12 02:58:52;;;;;;;10.90;1.73;;;10.50;99.90;;;;;;5025772;28;20371;-72
2021/10/12 03:01:17;;;;;;;7.35;1.30;;;10.50;99.90;;;;;;5013360;28;20045;-72
2021/10/12 03:03:43;;;;;;;8.20;1.63;;;10.50;99.90;;;;;;5027967;28;20060;-72
2021/10/12 03:06:08;;;;;;;7.35;1.05;;;10.50;99.90;;;;;;5033248;28;20053;-72
2021/10/12 03:08:34;;;;;;;7.13;1.52;;;10.60;99.90;;;;;;5032938;28;20047;-72
2021/10/12 03:10:59;;;;;;;7.68;1.30;;;10.60;99.90;;;;;;5029181;28;20422;-72
2021/10/12 03:13:25;;;;;;;8.85;1.40;;;10.50;99.90;;;;;;5013101;28;20041;-72
2021/10/12 03:15:51;;;;;;;5.57;1.25;;;10.60;99.90;;;;;;5031959;28;20045;-72
2021/10/12 03:18:16;;;;;;;5.97;1.42;;;10.60;99.90;;;;;;5057469;28;20124;-72
2021/10/12 03:20:42;;;;;;;6.43;1.38;;;10.50;99.90;;;;;;5027813;28;20029;-72
2021/10/12 03:23:07;;;;;;;7.78;1.33;;;10.50;99.90;;;;;;5032969;28;20390;-72
2021/10/12 03:25:33;;;;;;;6.38;1.10;;;10.60;99.90;;;;;;5016199;28;20044;-72
2021/10/12 03:27:59;;;;;;;6.00;1.20;;;10.60;99.90;;;;;;5033200;28;20470;-72
2021/10/12 03:30:24;;;;;;;8.55;1.67;;;10.60;99.90;;;;;;5035540;28;20037;-73
2021/10/12 03:32:50;;;;;;;5.78;1.73;;;10.70;99.90;;;;;;5028030;28;20037;-72
2021/10/12 03:35:18;;;;;;;7.45;1.60;;;10.60;99.90;;;;;;5026154;28;20041;-72
2021/10/12 03:37:44;;;;;;;8.20;1.63;;;10.70;99.90;;;;;;5005302;28;20049;-72
2021/10/12 03:40:10;;;;;;;6.97;1.65;;;10.70;99.90;;;;;;5029365;28;20094;-72
2021/10/12 03:42:36;;;;;;;6.32;1.40;;;10.70;99.90;;;;;;5032574;28;20443;-72
2021/10/12 03:45:02;;;;;;;7.28;1.63;;;10.80;99.90;;;;;;5028362;28;20049;-72
2021/10/12 03:47:27;;;;;;;8.25;1.92;;;10.70;99.90;;;;;;5028231;28;20029;-72
2021/10/12 03:49:53;;;;;;;8.38;1.65;;;10.80;99.90;;;;;;5035774;28;20044;-72
2021/10/12 03:52:18;;;;;;;10.98;1.92;;;10.80;99.90;;;;;;5025663;28;20063;-71
2021/10/12 03:54:44;;;;;;;5.95;1.77;;;10.80;99.90;;;;;;5018305;28;20124;-71
2021/10/12 03:57:09;;;;;;;7.43;1.80;;;10.80;99.90;;;;;;5036008;28;20037;-72
2021/10/12 03:59:35;;;;;;;9.02;1.80;;;10.80;99.90;;;;;;5019215;28;20112;-72
2021/10/12 04:02:00;;;;;;;10.55;2.08;;;10.80;99.90;;;;;;5020007;28;20186;-72
2021/10/12 04:04:26;;;;;;;7.40;2.03;;;10.80;99.90;;;;;;5022914;28;20550;-72
2021/10/12 04:06:52;;;;;;;10.18;1.60;;;10.80;99.90;;;;;;5032298;28;20618;-72
2021/10/12 04:09:18;;;;;;;7.68;2.00;;;10.80;99.90;;;;;;5020744;28;20048;-72
2021/10/12 04:11:43;;;;;;;9.05;2.28;;;10.80;99.90;;;;;;5035758;28;20528;-72
2021/10/12 04:14:09;;;;;;;8.18;1.55;;;10.80;99.90;;;;;;5036022;28;20040;-72
2021/10/12 04:16:35;;;;;;;6.25;1.85;;;10.80;99.90;;;;;;5044836;28;20064;-72
2021/10/12 04:19:01;;;;;;;7.60;1.67;;;10.80;99.90;;;;;;5043502;28;20036;-71
2021/10/12 04:21:26;;;;;;;7.30;1.77;;;10.80;99.90;;;;;;5033991;28;20525;-71
2021/10/12 04:23:52;;;;;;;6.22;1.40;;;10.80;99.90;;;;;;5027185;28;20041;-71
2021/10/12 04:26:19;;;;;;;6.25;1.45;;;10.80;99.90;;;;;;5037284;28;20442;-71
2021/10/12 04:28:45;;;;;;;8.88;2.05;;;10.80;99.90;;;;;;5039392;28;20037;-71
2021/10/12 04:31:11;;;;;;;5.38;1.60;;;10.90;99.90;;;;;;5028960;28;20052;-71
2021/10/12 04:33:36;;;;;;;8.80;2.00;;;10.80;99.90;;;;;;5048205;28;20041;-71
2021/10/12 04:36:02;;;;;;;7.30;1.33;;;10.80;99.90;;;;;;5032883;28;20064;-71
2021/10/12 04:38:29;;;;;;;6.88;1.48;;;10.80;99.90;;;;;;5035482;28;20085;-71
2021/10/12 04:40:54;;;;;;;6.65;1.80;;;10.70;99.90;;;;;;5038026;28;20044;-71
2021/10/12 04:43:21;;;;;;;7.35;1.30;;;10.70;99.90;;;;;;5032394;28;20045;-71
2021/10/12 04:45:47;;;;;;;7.22;1.52;;;10.70;99.90;;;;;;5030813;28;20147;-71
2021/10/12 04:48:15;;;;;;;9.18;1.80;;;10.70;99.90;;;;;;5018846;28;20698;-71
2021/10/12 04:50:40;;;;;;;6.68;1.73;;;10.60;99.90;;;;;;5024943;28;20458;-71
2021/10/12 04:53:06;;;;;;;6.97;1.90;;;10.60;99.90;;;;;;5014069;28;20069;-71
2021/10/12 04:55:32;;;;;;;9.63;1.42;;;10.60;99.90;;;;;;5028127;28;20033;-71
2021/10/12 04:57:58;;;;;;;8.05;1.25;;;10.70;99.90;;;;;;5028728;28;20046;-71
2021/10/12 05:00:24;;;;;;;11.60;1.90;;;10.70;99.90;;;;;;5024084;28;20047;-71
2021/10/12 05:02:50;;;;;;;9.70;1.65;;;10.80;99.90;;;;;;5049555;28;20038;-71
2021/10/12 05:05:15;;;;;;;7.38;1.65;;;10.80;99.90;;;;;;5030779;28;20060;-71
2021/10/12 05:07:41;;;;;;;6.85;1.60;;;10.80;99.90;;;;;;5035120;28;20544;-72
2021/10/12 05:10:07;;;;;;;7.07;1.27;;;10.80;99.90;;;;;;5035107;28;20509;-71
2021/10/12 05:12:34;;;;;;;9.10;1.58;;;10.80;99.90;;;;;;5026457;28;20053;-71
2021/10/12 05:14:59;;;;;;;8.80;1.63;;;10.80;99.90;;;;;;5028200;28;20487;-71
2021/10/12 05:17:35;;;;;;;8.38;1.55;;;10.80;99.90;;;;;;5036605;28;20040;-72
2021/10/12 05:20:01;;;;;;;7.88;1.55;;;10.80;99.90;;;;;;5033188;28;20041;-71
2021/10/12 05:22:26;;;;;;;5.25;1.20;;;10.90;99.90;;;;;;5053256;28;20083;-71
2021/10/12 05:24:52;;;;;;;5.47;1.15;;;10.90;99.90;;;;;;5032765;28;20128;-71
2021/10/12 05:27:17;;;;;;;4.72;1.20;;;10.90;99.90;;;;;;5050927;28;20120;-71
2021/10/12 05:29:43;;;;;;;5.05;1.42;;;10.90;99.90;;;;;;5034452;28;20116;-71
2021/10/12 05:32:09;;;;;;;7.38;1.40;;;10.90;99.90;;;;;;5034651;28;20053;-71
2021/10/12 05:34:35;;;;;;;7.93;1.52;;;10.90;99.90;;;;;;5028245;28;20160;-71
2021/10/12 05:37:00;;;;;;;7.53;1.85;;;10.90;99.90;;;;;;5019926;28;20446;-71
2021/10/12 05:39:28;;;;;;;8.75;1.60;;;10.90;99.90;;;;;;5034178;28;20513;-71
2021/10/12 05:41:55;;;;;;;6.35;1.40;;;10.90;99.90;;;;;;5029588;28;20037;-71
2021/10/12 05:44:21;;;;;;;5.35;1.38;;;10.90;99.90;;;;;;5034526;28;20041;-71
2021/10/12 05:46:47;;;;;;;7.22;1.40;;;10.90;99.90;;;;;;5034297;28;20025;-71
2021/10/12 05:49:12;;;;;;;6.60;1.58;;;10.90;99.90;;;;;;5022113;28;20088;-71
2021/10/12 05:51:38;;;;;;;6.40;1.58;;;10.80;99.90;;;;;;5042329;22;20455;-61
2021/10/12 05:54:06;;;;;;;6.63;1.48;;;10.80;99.90;;;;;;5071106;28;20052;-61
2021/10/12 05:56:45;;;;;;;6.10;1.38;;;10.80;99.90;;;;;;5072044;28;20040;-61
2021/10/12 05:59:11;;;;;;;5.82;1.40;;;10.80;99.90;;;;;;5070488;28;20434;-61
2021/10/12 06:01:40;;;;;;;9.70;1.65;;;10.80;99.90;;;;;;5071278;28;20108;-61
2021/10/12 06:04:06;;;;;;;8.93;1.73;;;10.80;99.90;;;;;;5072700;28;20040;-61
2021/10/12 06:06:32;;;;;;;8.15;1.77;;;10.80;99.90;;;;;;5070388;28;20467;-61
2021/10/12 06:08:57;;;;;;;9.43;1.90;;;10.80;99.90;;;;;;5071624;28;20078;-61
2021/10/12 06:11:23;;;;;;;10.85;2.22;;;10.80;99.90;;;;;;5070183;28;20470;-61
2021/10/12 06:13:49;;;;;;;8.57;1.40;;;10.90;99.90;;;;;;5071872;28;20039;-61
2021/10/12 06:16:15;;;;;;;10.10;1.90;;;10.90;99.90;;;;;;5070518;28;20098;-61
2021/10/12 06:18:40;;;;;;;6.97;1.30;;;10.80;99.90;;;;;;5071274;28;20443;-61
2021/10/12 06:21:06;;;;;;;4.00;1.13;;;10.90;99.90;;;;;;5071254;28;20396;-61
2021/10/12 06:23:32;;;;;;;6.65;1.60;;;10.80;99.90;;;;;;5070390;28;20074;-61
2021/10/12 06:25:57;;;;;;;4.82;1.52;;;10.80;99.90;;;;;;5064819;28;20045;-61
2021/10/12 06:28:24;;;;;;;6.13;1.35;;;10.80;99.90;;;;;;5071553;28;20397;-60
2021/10/12 06:30:49;;;;;;;6.80;1.38;;;10.80;99.90;;;;;;5071655;28;20055;-61
2021/10/12 06:33:15;;;;;;;5.38;1.50;;;10.80;99.90;;;;;;5071111;28;20036;-61
2021/10/12 06:35:41;;;;;;;9.70;1.85;;;10.80;99.90;;;;;;5070880;28;20064;-61
2021/10/12 06:38:07;;;;;;;6.93;1.83;;;10.80;99.90;;;;;;5069945;28;20041;-61
2021/10/12 06:40:34;;;;;;;7.80;1.73;;;10.90;99.90;;;;;;5070450;28;20361;-61
2021/10/12 06:43:00;;;;;;;10.35;1.63;;;10.90;99.90;;;;;;5070757;28;20072;-61
2021/10/12 06:45:26;;;;;;;11.38;1.92;;;10.90;99.90;;;;;;5071538;28;20154;-61
2021/10/12 06:47:52;;;;;;;6.47;1.38;;;11.00;99.90;;;;;;5070179;28;20150;-61
2021/10/12 06:50:19;;;;;;;7.90;1.60;;;11.00;99.90;;;;;;5070182;28;20048;-61
2021/10/12 06:52:45;;;;;;;8.52;1.45;;;11.00;99.90;;;;;;5070159;28;20177;-61
2021/10/12 06:55:14;;;;;;;6.15;1.52;;;11.00;99.90;;;;;;5071353;28;20131;-61
2021/10/12 06:57:39;;;;;;;3.63;0.93;;;11.00;99.90;;;;;;5068870;28;20036;-61
2021/10/12 07:00:07;;;;;;;4.85;0.82;;;11.00;99.90;;;;;;5067694;28;20083;-61
2021/10/12 07:02:33;;;;;;;4.03;0.80;;;11.00;99.90;;;;;;5070430;28;20060;-61
2021/10/12 07:04:58;;;;;;;4.65;0.65;;;10.90;99.90;;;;;;5071392;28;20091;-61
2021/10/12 07:07:24;;;;;;;4.68;1.08;;;11.00;99.90;;;;;;5071375;28;20492;-61
2021/10/12 07:09:50;;;;;;;4.60;1.42;;;10.90;99.90;;;;;;5071581;28;20051;-61
2021/10/12 07:12:16;;;;;;;7.43;1.23;;;11.00;99.90;;;;;;5071214;28;20036;-61
2021/10/12 07:14:41;;;;;;;5.97;0.85;;;10.90;99.90;;;;;;5071468;28;20033;-61
2021/10/12 07:17:07;;;;;;;4.57;0.88;;;10.90;99.90;;;;;;5066775;28;20522;-61
2021/10/12 07:19:32;;;;;;;7.10;1.23;;;11.00;99.90;;;;;;5063928;28;20045;-60
2021/10/12 07:21:58;;;;;;;4.78;0.75;;;11.00;99.90;;;;;;5069941;28;20119;-61
2021/10/12 07:24:24;;;;;;;5.45;1.20;;;11.00;99.90;;;;;;5069674;28;20334;-61
2021/10/12 07:26:50;;;;;;;3.75;0.70;;;11.00;99.90;;;;;;5068061;28;20036;-61
2021/10/12 07:29:16;;;;;;;7.28;1.35;;;11.10;99.90;;;;;;5070228;28;20378;-61
2021/10/12 07:31:42;;;;;;;6.63;1.35;;;11.10;99.90;;;;;;5052178;28;20041;-61
2021/10/12 07:34:08;;;;;;;5.57;0.90;;;11.10;99.90;;;;;;5069400;28;20083;-61
2021/10/12 07:36:34;;;;;;;5.50;1.15;;;11.10;99.90;;;;;;5070664;28;20144;-61
2021/10/12 07:39:00;;;;;;;7.93;1.77;;;11.10;99.90;;;;;;5067860;28;20112;-61
2021/10/12 07:41:26;;;;;;;5.03;1.23;;;11.20;99.90;;;;;;5070272;28;20116;-61
2021/10/12 07:43:52;;;;;;;3.85;0.60;;;11.20;99.90;;;;;;5070580;28;20041;-61
2021/10/12 07:46:17;;;;;;;3.50;1.92;;;11.20;99.90;;;;;;5070382;28;20481;-60
2021/10/12 07:48:43;;;;;;;5.63;0.88;;;11.20;99.90;;;;;;5070657;28;20570;-61
2021/10/12 07:51:08;;;;;;;6.72;1.33;;;11.30;99.90;;;;;;5071001;28;20355;-61
2021/10/12 07:53:37;;;;;;;7.55;1.48;;;11.30;99.90;;;;;;5068935;28;20049;-61
2021/10/12 07:56:07;;;;;;;7.63;1.05;;;11.40;99.90;;;;;;5065113;28;20159;-61
2021/10/12 07:58:33;;;;;;;9.68;1.58;;;11.50;99.90;;;;;;5069920;28;20554;-61
2021/10/12 08:00:58;;;;;;;4.32;0.80;;;11.50;99.90;;;;;;5070964;28;20036;-61
2021/10/12 08:03:24;;;;;;;8.45;1.38;;;11.60;99.90;;;;;;5071358;28;20055;-61
2021/10/12 08:05:49;;;;;;;6.63;1.17;;;11.60;99.90;;;;;;5069367;28;20048;-61
2021/10/12 08:08:15;;;;;;;8.10;1.15;;;11.70;99.90;;;;;;5065788;28;20038;-60
2021/10/12 08:10:40;;;;;;;7.50;1.17;;;11.70;99.90;;;;;;5070246;28;20111;-61
2021/10/12 08:13:21;;;;;;;6.00;1.13;;;11.80;99.90;;;;;;5069237;28;20032;-61
2021/10/12 08:16:01;;;;;;;5.82;1.30;;;11.90;99.90;;;;;;5072725;28;20143;-61
2021/10/12 08:18:26;;;;;;;8.20;1.45;;;11.90;99.90;;;;;;5066464;28;20420;-60
2021/10/12 08:20:52;;;;;;;5.97;1.30;;;12.10;99.90;;;;;;5066078;28;20040;-61
2021/10/12 08:23:18;;;;;;;7.18;1.70;;;12.20;99.90;;;;;;5073340;28;20458;-61
2021/10/12 08:25:43;;;;;;;7.90;1.60;;;12.30;99.90;;;;;;5073790;28;20129;-61
2021/10/12 08:28:09;;;;;;;8.52;1.50;;;12.40;99.90;;;;;;5074775;28;20131;-61
2021/10/12 08:30:35;;;;;;;7.50;1.40;;;12.40;99.90;;;;;;5074815;28;20072;-61
2021/10/12 08:33:00;;;;;;;6.57;1.63;;;12.50;99.90;;;;;;5074796;28;20041;-61
2021/10/12 08:35:26;;;;;;;3.45;1.27;;;12.60;99.90;;;;;;5075084;28;20056;-61
2021/10/12 08:37:51;;;;;;;6.45;1.40;;;12.60;99.90;;;;;;5072504;28;20067;-61
2021/10/12 08:40:17;;;;;;;7.40;1.02;;;12.60;99.90;;;;;;5073468;28;20064;-61
2021/10/12 08:42:48;;;;;;;7.97;1.30;;;12.60;99.90;;;;;;5073233;28;20044;-61
2021/10/12 08:45:15;;;;;;;6.30;1.50;;;12.60;99.90;;;;;;5060180;28;20084;-61
2021/10/12 08:47:41;;;;;;;9.55;1.33;;;12.70;99.90;;;;;;5054428;28;20469;-61
2021/10/12 08:50:12;;;;;;;7.45;1.10;;;12.80;99.90;;;;;;5067935;28;20367;-61
2021/10/12 08:52:38;;;;;;;5.97;1.30;;;12.90;99.90;;;;;;5071210;28;20059;-61
2021/10/12 08:55:05;;;;;;;6.32;1.08;;;12.90;99.90;;;;;;5068202;28;20072;-61
2021/10/12 08:57:35;;;;;;;5.35;1.30;;;13.00;99.90;;;;;;5073758;28;20028;-61
2021/10/12 09:00:06;;;;;;;6.40;1.00;;;12.90;99.90;;;;;;5074375;28;20042;-61
2021/10/12 09:02:31;;;;;;;7.97;1.42;;;12.90;99.90;;;;;;5073583;28;20029;-61
2021/10/12 09:04:57;;;;;;;7.28;1.17;;;12.90;99.90;;;;;;5073767;28;20055;-61
2021/10/12 09:07:27;;;;;;;6.78;1.30;;;13.00;99.90;;;;;;5070981;28;20109;-61
2021/10/12 09:09:55;;;;;;;7.82;1.38;;;13.00;99.90;;;;;;5072885;28;20075;-61
2021/10/12 09:12:43;;;;;;;12.30;1.45;;;13.00;99.90;;;;;;5072058;28;20028;-61
2021/10/12 09:15:10;;;;;;;5.93;1.42;;;13.00;99.90;;;;;;5068069;28;20114;-61
2021/10/12 09:17:37;;;;;;;6.50;1.65;;;13.10;99.90;;;;;;5072180;28;20071;-61
2021/10/12 09:20:06;;;;;;;6.35;1.40;;;13.10;99.90;;;;;;5073522;28;20020;-61
2021/10/12 09:22:31;;;;;;;7.25;1.27;;;13.20;99.90;;;;;;5071017;28;20040;-61
2021/10/12 09:25:13;;;;;;;5.00;0.80;;;13.30;99.90;;;;;;5071375;28;20055;-61
2021/10/12 09:27:55;;;;;;;6.32;0.88;;;13.30;99.90;;;;;;5072492;28;20135;-61
2021/10/12 09:30:32;;;;;;;6.82;1.85;;;13.30;99.90;;;;;;5073307;28;20132;-61
2021/10/12 09:33:06;;;;;;;6.63;1.23;;;13.30;99.90;;;;;;5073075;28;20044;-61
2021/10/12 09:35:32;;;;;;;7.25;1.55;;;13.40;99.90;;;;;;5073749;28;20044;-61
2021/10/12 09:38:10;;;;;;;7.03;1.27;;;13.40;99.90;;;;;;5071084;28;20127;-61
2021/10/12 09:40:38;;;;;;;6.40;1.20;;;13.40;99.90;;;;;;5070444;28;20401;-61
2021/10/12 09:43:04;;;;;;;4.30;0.98;;;13.30;99.90;;;;;;5071424;28;20054;-61
2021/10/12 09:45:38;;;;;;;4.13;0.82;;;13.40;99.90;;;;;;5071855;28;20040;-60
2021/10/12 09:48:31;;;;;;;4.90;0.85;;;13.40;99.90;;;;;;5067445;28;20076;-61
2021/10/12 09:51:16;;;;;;;6.35;0.95;;;13.40;99.90;;;;;;5073319;28;20040;-61
2021/10/12 09:53:44;;;;;;;4.65;1.10;;;13.30;99.90;;;;;;5071548;28;20059;-60
2021/10/12 09:56:11;;;;;;;3.10;0.88;;;13.30;99.90;;;;;;5071386;28;20032;-61
2021/10/12 09:58:37;;;;;;;5.93;0.88;;;13.40;99.90;;;;;;5072839;28;20040;-61
2021/10/12 10:01:05;;;;;;;7.07;0.82;;;13.50;99.90;;;;;;5071594;28;20052;-60
2021/10/12 10:03:31;;;;;;;2.78;1.00;;;13.50;99.90;;;;;;5072069;28;20032;-60
2021/10/12 10:06:02;;;;;;;7.13;0.90;;;13.50;99.90;;;;;;5068953;28;20047;-59
2021/10/12 10:08:31;;;;;;;5.97;0.93;;;13.50;99.90;;;;;;5071675;28;20058;-60
2021/10/12 10:10:58;;;;;;;6.70;1.10;;;13.50;99.90;;;;;;5068922;28;20055;-60
2021/10/12 10:13:26;;;;;;;8.48;1.00;;;13.60;99.90;;;;;;5065982;28;20040;-60
2021/10/12 10:15:53;;;;;;;5.70;0.70;;;13.70;99.90;;;;;;5070490;28;20048;-60
2021/10/12 10:18:20;;;;;;;6.80;0.95;;;13.80;99.90;;;;;;5070498;28;20072;-60
2021/10/12 10:20:51;;;;;;;3.25;0.77;;;13.80;99.90;;;;;;5071138;28;20028;-60
2021/10/12 10:23:48;;;;;;;6.97;0.90;;;13.90;99.90;;;;;;5064616;28;20044;-60
2021/10/12 10:26:32;;;;;;;4.90;0.90;;;14.20;99.90;;;;;;5067433;28;20043;-60
2021/10/12 10:29:19;;;;;;;8.02;1.15;;;14.40;99.90;;;;;;5051891;28;20056;-61
2021/10/12 10:31:47;;;;;;;4.90;1.10;;;14.40;99.90;;;;;;5068644;28;20040;-62
2021/10/12 10:34:58;;;;;;;5.38;0.80;;;14.40;99.90;;;;;;5069143;28;20401;-60
2021/10/12 10:37:27;;;;;;;6.68;1.17;;;14.40;99.90;;;;;;5010049;28;20549;-60
2021/10/12 10:40:03;;;;;;;2.75;0.60;;;14.30;99.90;;;;;;5067105;28;20041;-60
2021/10/12 10:42:41;;;;;;;6.68;1.33;;;14.30;99.90;;;;;;5068088;28;20055;-60
2021/10/12 10:45:10;;;;;;;6.22;1.00;;;14.10;99.90;;;;;;5068973;28;20043;-60
2021/10/12 10:47:45;;;;;;;5.65;1.30;;;14.10;99.90;;;;;;5067719;28;20040;-60
2021/10/12 10:50:12;;;;;;;7.72;1.20;;;13.90;99.90;;;;;;5065732;28;20465;-60
2021/10/12 10:52:52;;;;;;;4.65;1.10;;;13.90;99.90;;;;;;5067264;28;20402;-62
2021/10/12 10:55:39;;;;;;;4.50;0.88;;;13.80;99.90;;;;;;5062381;28;20044;-60
2021/10/12 10:58:15;;;;;;;9.27;1.05;;;13.80;99.90;;;;;;5060942;28;20371;-60
2021/10/12 11:00:43;;;;;;;3.95;0.90;;;13.80;99.90;;;;;;5062177;28;20033;-60
2021/10/12 11:03:29;;;;;;;5.55;1.00;;;13.70;99.90;;;;;;5060148;28;20041;-60
2021/10/12 11:05:56;;;;;;;4.80;0.90;;;13.70;99.90;;;;;;5067329;28;20048;-60
2021/10/12 11:08:27;;;;;;;4.95;0.90;;;13.90;99.90;;;;;;5069003;28;20108;-60
2021/10/12 11:11:04;;;;;;;5.80;1.30;;;14.00;99.90;;;;;;5070069;28;20115;-60
2021/10/12 11:13:30;;;;;;;2.92;0.70;;;14.00;99.90;;;;;;5069548;28;20445;-60
2021/10/12 11:15:55;;;;;;;4.00;0.60;;;14.00;99.90;;;;;;5067549;28;20056;-60
2021/10/12 11:18:21;;;;;;;6.05;1.00;;;13.90;99.90;;;;;;5069629;28;20055;-60
2021/10/12 11:20:50;;;;;;;3.65;1.02;;;13.80;99.90;;;;;;5062839;28;20091;-60
2021/10/12 11:23:32;;;;;;;4.95;0.93;;;13.90;99.90;;;;;;5067965;28;20036;-60
2021/10/12 11:26:14;;;;;;;5.53;0.90;;;14.10;99.90;;;;;;5066545;28;20056;-60
2021/10/12 11:28:42;;;;;;;3.75;0.80;;;14.30;99.90;;;;;;5068863;28;20089;-60
2021/10/12 11:31:13;;;;;;;5.82;1.27;;;14.50;99.90;;;;;;5070531;28;20077;-60
2021/10/12 11:33:44;;;;;;;4.60;0.80;;;14.70;99.90;;;;;;5070603;28;20036;-60
2021/10/12 11:36:11;;;;;;;6.72;1.20;;;14.80;99.90;;;;;;5069720;28;20083;-60
2021/10/12 11:38:40;;;;;;;5.63;1.23;;;14.90;99.90;;;;;;5070179;28;20094;-60
2021/10/12 11:41:18;;;;;;;4.10;0.80;;;14.90;99.90;;;;;;5068659;28;20037;-60
2021/10/12 11:43:46;;;;;;;3.88;0.98;;;14.60;99.90;;;;;;5068459;28;20467;-61
2021/10/12 11:46:18;;;;;;;4.00;0.80;;;14.20;99.90;;;;;;5065942;28;20037;-60
2021/10/12 11:48:44;;;;;;;2.70;0.55;;;14.00;99.90;;;;;;5067388;28;20029;-61
2021/10/12 11:51:17;;;;;;;4.57;0.80;;;13.60;99.90;;;;;;5072513;28;20792;-62
2021/10/12 11:53:44;;;;;;;3.30;0.70;;;13.30;99.90;;;;;;5072376;28;20064;-62
2021/10/12 11:56:11;;;;;;;3.85;1.10;;;13.20;99.90;;;;;;5073657;28;20720;-62
2021/10/12 11:58:41;;;;;;;4.35;0.93;;;13.20;99.90;;;;;;5072827;28;20075;-62
2021/10/12 12:01:09;;;;;;;3.47;0.88;;;13.10;99.90;;;;;;5073682;28;20567;-62
2021/10/12 12:03:35;;;;;;;3.40;0.80;;;13.10;99.90;;;;;;5071655;28;20474;-62
2021/10/12 12:06:02;;;;;;;5.88;1.02;;;13.10;99.90;;;;;;5072112;28;20147;-61
2021/10/12 12:08:30;;;;;;;5.07;0.93;;;13.20;99.90;;;;;;5070608;28;20064;-61
2021/10/12 12:10:57;;;;;;;3.55;1.13;;;13.30;99.90;;;;;;5072176;28;20150;-62
2021/10/12 12:13:28;;;;;;;6.88;1.00;;;13.40;99.90;;;;;;5072405;28;20044;-62
2021/10/12 12:15:54;;;;;;;5.22;1.20;;;13.50;99.90;;;;;;5072805;28;20102;-62
2021/10/12 12:18:24;;;;;;;3.10;0.90;;;13.70;99.90;;;;;;5074135;28;20040;-62
2021/10/12 12:20:58;;;;;;;6.25;1.38;;;14.00;99.90;;;;;;5074166;28;20489;-61
2021/10/12 12:23:30;;;;;;;7.00;1.52;;;14.30;99.90;;;;;;5064607;28;20097;-62
2021/10/12 12:25:57;;;;;;;3.05;1.20;;;14.40;99.90;;;;;;5062374;28;20064;-62
2021/10/12 12:28:23;;;;;;;4.45;1.10;;;14.50;99.90;;;;;;5068579;28;20353;-62
2021/10/12 12:30:49;;;;;;;5.60;1.20;;;14.00;99.90;;;;;;5063518;28;20058;-62
2021/10/12 12:33:14;;;;;;;4.85;1.55;;;14.00;99.90;;;;;;5068087;28;20037;-62
2021/10/12 12:35:46;;;;;;;3.95;1.48;;;14.00;99.90;;;;;;5067028;28;20036;-62
2021/10/12 12:38:23;;;;;;;4.07;1.38;;;14.00;99.90;;;;;;5065655;28;20061;-62
2021/10/12 12:40:51;;;;;;;4.30;1.10;;;14.00;99.90;;;;;;5065679;28;20029;-62
2021/10/12 12:43:17;;;;;;;3.58;1.05;;;13.90;99.90;;;;;;5069054;28;20043;-62
2021/10/12 12:45:43;;;;;;;8.60;1.30;;;13.80;99.90;;;;;;5061893;28;20064;-62
2021/10/12 12:48:08;;;;;;;6.95;1.42;;;13.90;99.90;;;;;;5068677;28;20103;-62